金門航空站 - ATIS

METAR RCBS 201200Z 03010KT 340V060 CAVOK 22/14 Q1017 NOSIG RMK A3005(Z)=

站台狀態:Offline
最後更新:2019-10-21 03:45:02